Terminal Aerodrome Forecast
Issued by NWS

Home | Current Version | Previous Version | Text Only | Print | Product List | Glossary On
Versions: 1 2 3 4 5 6 7 8 9 10 11 12
000
FTUS46 KMTR 201133
TAFSNS
TAF
KSNS 201133Z 2012/2112 11004KT P6SM FEW050 BKN120
     FM201500 12010KT P6SM FEW040 SCT060 BKN150
     FM202200 28007KT P6SM FEW040 SCT080 BKN180
     FM210500 14004KT P6SM BKN010=

USA.gov is the U.S. government's official web portal to all federal, state and local government web resources and services.